sensor_id;sensor_type;location;lat;lon;timestamp;P1;durP1;ratioP1;P2;durP2;ratioP2
81298;SDS011;70766;53.170;18.160;2023-07-20T00:00:08;8.80;;;6.50;;
81298;SDS011;70766;53.170;18.160;2023-07-20T00:03:10;9.80;;;7.00;;
81298;SDS011;70766;53.170;18.160;2023-07-20T00:05:45;10.40;;;6.80;;
81298;SDS011;70766;53.170;18.160;2023-07-20T00:08:13;10.70;;;7.80;;
81298;SDS011;70766;53.170;18.160;2023-07-20T00:10:41;11.60;;;7.40;;
81298;SDS011;70766;53.170;18.160;2023-07-20T00:13:10;12.80;;;7.80;;
81298;SDS011;70766;53.170;18.160;2023-07-20T00:15:39;11.70;;;7.90;;
81298;SDS011;70766;53.170;18.160;2023-07-20T00:18:07;10.80;;;6.80;;
81298;SDS011;70766;53.170;18.160;2023-07-20T00:20:35;8.50;;;6.20;;
81298;SDS011;70766;53.170;18.160;2023-07-20T00:23:04;8.70;;;6.00;;
81298;SDS011;70766;53.170;18.160;2023-07-20T00:25:32;10.10;;;6.80;;
81298;SDS011;70766;53.170;18.160;2023-07-20T00:28:01;9.90;;;7.30;;
81298;SDS011;70766;53.170;18.160;2023-07-20T00:30:29;10.20;;;7.20;;
81298;SDS011;70766;53.170;18.160;2023-07-20T00:32:57;10.20;;;6.90;;
81298;SDS011;70766;53.170;18.160;2023-07-20T00:35:25;11.00;;;7.10;;
81298;SDS011;70766;53.170;18.160;2023-07-20T00:37:53;10.10;;;7.10;;
81298;SDS011;70766;53.170;18.160;2023-07-20T00:40:21;9.00;;;6.80;;
81298;SDS011;70766;53.170;18.160;2023-07-20T00:42:50;10.30;;;6.50;;
81298;SDS011;70766;53.170;18.160;2023-07-20T00:45:27;9.70;;;6.40;;
81298;SDS011;70766;53.170;18.160;2023-07-20T00:47:56;10.90;;;7.10;;
81298;SDS011;70766;53.170;18.160;2023-07-20T00:50:25;8.30;;;6.30;;
81298;SDS011;70766;53.170;18.160;2023-07-20T00:52:55;8.00;;;5.50;;
81298;SDS011;70766;53.170;18.160;2023-07-20T00:55:24;9.00;;;6.10;;
81298;SDS011;70766;53.170;18.160;2023-07-20T00:57:54;8.70;;;5.40;;
81298;SDS011;70766;53.170;18.160;2023-07-20T01:00:22;8.40;;;5.80;;
81298;SDS011;70766;53.170;18.160;2023-07-20T01:02:51;11.40;;;7.30;;
81298;SDS011;70766;53.170;18.160;2023-07-20T01:05:21;9.30;;;6.30;;
81298;SDS011;70766;53.170;18.160;2023-07-20T01:08:00;10.00;;;7.20;;
81298;SDS011;70766;53.170;18.160;2023-07-20T01:10:46;10.20;;;7.30;;
81298;SDS011;70766;53.170;18.160;2023-07-20T01:13:21;13.10;;;7.90;;
81298;SDS011;70766;53.170;18.160;2023-07-20T01:15:50;10.90;;;8.00;;
81298;SDS011;70766;53.170;18.160;2023-07-20T01:18:21;14.10;;;9.80;;
81298;SDS011;70766;53.170;18.160;2023-07-20T01:20:49;13.70;;;9.70;;
81298;SDS011;70766;53.170;18.160;2023-07-20T01:23:32;13.40;;;9.20;;
81298;SDS011;70766;53.170;18.160;2023-07-20T01:26:34;13.80;;;9.00;;
81298;SDS011;70766;53.170;18.160;2023-07-20T01:32:13;13.10;;;8.20;;
81298;SDS011;70766;53.170;18.160;2023-07-20T01:34:44;11.50;;;7.30;;
81298;SDS011;70766;53.170;18.160;2023-07-20T01:37:16;12.50;;;7.70;;
81298;SDS011;70766;53.170;18.160;2023-07-20T01:39:47;9.50;;;7.30;;
81298;SDS011;70766;53.170;18.160;2023-07-20T01:42:16;9.00;;;6.60;;
81298;SDS011;70766;53.170;18.160;2023-07-20T01:44:44;10.80;;;6.70;;
81298;SDS011;70766;53.170;18.160;2023-07-20T01:47:12;9.10;;;6.70;;
81298;SDS011;70766;53.170;18.160;2023-07-20T01:49:40;10.30;;;6.60;;
81298;SDS011;70766;53.170;18.160;2023-07-20T01:52:09;9.60;;;6.80;;
81298;SDS011;70766;53.170;18.160;2023-07-20T01:54:37;11.50;;;7.10;;
81298;SDS011;70766;53.170;18.160;2023-07-20T01:57:05;10.40;;;7.70;;
81298;SDS011;70766;53.170;18.160;2023-07-20T01:59:33;12.30;;;8.60;;
81298;SDS011;70766;53.170;18.160;2023-07-20T02:02:01;12.70;;;8.30;;
81298;SDS011;70766;53.170;18.160;2023-07-20T02:04:29;11.30;;;8.10;;
81298;SDS011;70766;53.170;18.160;2023-07-20T02:06:58;13.70;;;8.70;;
81298;SDS011;70766;53.170;18.160;2023-07-20T02:09:28;14.00;;;9.10;;
81298;SDS011;70766;53.170;18.160;2023-07-20T02:11:56;12.50;;;10.00;;
81298;SDS011;70766;53.170;18.160;2023-07-20T02:14:24;13.60;;;9.70;;
81298;SDS011;70766;53.170;18.160;2023-07-20T02:16:52;15.60;;;10.00;;
81298;SDS011;70766;53.170;18.160;2023-07-20T02:19:21;14.70;;;9.80;;
81298;SDS011;70766;53.170;18.160;2023-07-20T02:21:49;15.40;;;10.20;;
81298;SDS011;70766;53.170;18.160;2023-07-20T02:24:18;13.80;;;10.00;;
81298;SDS011;70766;53.170;18.160;2023-07-20T02:26:46;14.00;;;8.70;;
81298;SDS011;70766;53.170;18.160;2023-07-20T02:29:14;14.00;;;10.10;;
81298;SDS011;70766;53.170;18.160;2023-07-20T02:31:42;12.70;;;9.50;;
81298;SDS011;70766;53.170;18.160;2023-07-20T02:34:11;12.40;;;7.30;;
81298;SDS011;70766;53.170;18.160;2023-07-20T02:36:38;11.00;;;7.90;;
81298;SDS011;70766;53.170;18.160;2023-07-20T02:39:07;11.40;;;7.00;;
81298;SDS011;70766;53.170;18.160;2023-07-20T02:41:35;9.00;;;7.10;;
81298;SDS011;70766;53.170;18.160;2023-07-20T02:44:03;8.50;;;6.30;;
81298;SDS011;70766;53.170;18.160;2023-07-20T02:46:31;10.60;;;5.90;;
81298;SDS011;70766;53.170;18.160;2023-07-20T02:49:00;7.80;;;4.90;;
81298;SDS011;70766;53.170;18.160;2023-07-20T02:51:28;8.20;;;5.90;;
81298;SDS011;70766;53.170;18.160;2023-07-20T02:53:56;6.70;;;4.70;;
81298;SDS011;70766;53.170;18.160;2023-07-20T02:56:24;7.00;;;4.50;;
81298;SDS011;70766;53.170;18.160;2023-07-20T02:58:52;6.50;;;4.10;;
81298;SDS011;70766;53.170;18.160;2023-07-20T03:01:20;8.10;;;4.50;;
81298;SDS011;70766;53.170;18.160;2023-07-20T03:03:49;7.40;;;4.50;;
81298;SDS011;70766;53.170;18.160;2023-07-20T03:06:17;7.00;;;4.50;;
81298;SDS011;70766;53.170;18.160;2023-07-20T03:08:45;6.20;;;4.60;;
81298;SDS011;70766;53.170;18.160;2023-07-20T03:11:16;8.10;;;4.60;;
81298;SDS011;70766;53.170;18.160;2023-07-20T03:13:45;7.10;;;4.10;;
81298;SDS011;70766;53.170;18.160;2023-07-20T03:16:13;9.80;;;4.80;;
81298;SDS011;70766;53.170;18.160;2023-07-20T03:18:45;7.10;;;4.40;;
81298;SDS011;70766;53.170;18.160;2023-07-20T03:21:14;5.90;;;4.10;;
81298;SDS011;70766;53.170;18.160;2023-07-20T03:23:42;6.10;;;4.10;;
81298;SDS011;70766;53.170;18.160;2023-07-20T03:26:10;6.10;;;4.20;;
81298;SDS011;70766;53.170;18.160;2023-07-20T03:28:38;6.80;;;3.70;;
81298;SDS011;70766;53.170;18.160;2023-07-20T03:31:06;6.40;;;3.60;;
81298;SDS011;70766;53.170;18.160;2023-07-20T03:33:37;6.80;;;3.60;;
81298;SDS011;70766;53.170;18.160;2023-07-20T03:36:05;7.20;;;3.80;;
81298;SDS011;70766;53.170;18.160;2023-07-20T03:38:33;6.00;;;3.30;;
81298;SDS011;70766;53.170;18.160;2023-07-20T03:41:01;5.20;;;3.30;;
81298;SDS011;70766;53.170;18.160;2023-07-20T03:43:29;5.30;;;3.30;;
81298;SDS011;70766;53.170;18.160;2023-07-20T03:45:57;5.70;;;3.50;;
81298;SDS011;70766;53.170;18.160;2023-07-20T03:48:25;6.40;;;3.60;;
81298;SDS011;70766;53.170;18.160;2023-07-20T03:50:54;5.50;;;3.40;;
81298;SDS011;70766;53.170;18.160;2023-07-20T03:53:24;4.90;;;3.40;;
81298;SDS011;70766;53.170;18.160;2023-07-20T03:55:52;5.50;;;3.50;;
81298;SDS011;70766;53.170;18.160;2023-07-20T03:58:21;6.90;;;3.30;;
81298;SDS011;70766;53.170;18.160;2023-07-20T04:00:49;4.50;;;3.30;;
81298;SDS011;70766;53.170;18.160;2023-07-20T04:03:19;5.60;;;3.20;;
81298;SDS011;70766;53.170;18.160;2023-07-20T04:05:48;8.60;;;3.40;;
81298;SDS011;70766;53.170;18.160;2023-07-20T04:08:16;6.10;;;3.40;;
81298;SDS011;70766;53.170;18.160;2023-07-20T04:10:44;3.90;;;2.80;;
81298;SDS011;70766;53.170;18.160;2023-07-20T04:13:13;5.10;;;3.10;;
81298;SDS011;70766;53.170;18.160;2023-07-20T04:15:41;6.40;;;3.30;;
81298;SDS011;70766;53.170;18.160;2023-07-20T04:18:10;6.80;;;3.20;;
81298;SDS011;70766;53.170;18.160;2023-07-20T04:20:38;5.50;;;2.80;;
81298;SDS011;70766;53.170;18.160;2023-07-20T04:23:06;4.80;;;2.90;;
81298;SDS011;70766;53.170;18.160;2023-07-20T04:25:34;6.60;;;2.90;;
81298;SDS011;70766;53.170;18.160;2023-07-20T04:28:08;5.30;;;3.00;;
81298;SDS011;70766;53.170;18.160;2023-07-20T04:30:40;7.70;;;3.40;;
81298;SDS011;70766;53.170;18.160;2023-07-20T04:33:08;5.30;;;3.20;;
81298;SDS011;70766;53.170;18.160;2023-07-20T04:35:49;5.30;;;3.10;;
81298;SDS011;70766;53.170;18.160;2023-07-20T04:38:22;5.80;;;3.00;;
81298;SDS011;70766;53.170;18.160;2023-07-20T04:40:56;6.70;;;3.80;;
81298;SDS011;70766;53.170;18.160;2023-07-20T04:43:25;5.60;;;3.00;;
81298;SDS011;70766;53.170;18.160;2023-07-20T04:45:54;7.70;;;3.40;;
81298;SDS011;70766;53.170;18.160;2023-07-20T04:48:23;12.30;;;3.30;;
81298;SDS011;70766;53.170;18.160;2023-07-20T04:50:53;5.00;;;3.00;;
81298;SDS011;70766;53.170;18.160;2023-07-20T04:53:21;4.90;;;3.20;;
81298;SDS011;70766;53.170;18.160;2023-07-20T04:55:49;6.60;;;3.50;;
81298;SDS011;70766;53.170;18.160;2023-07-20T04:58:20;5.90;;;3.80;;
81298;SDS011;70766;53.170;18.160;2023-07-20T05:00:51;7.50;;;3.70;;
81298;SDS011;70766;53.170;18.160;2023-07-20T05:03:21;6.10;;;3.40;;
81298;SDS011;70766;53.170;18.160;2023-07-20T05:05:49;5.60;;;2.90;;
81298;SDS011;70766;53.170;18.160;2023-07-20T05:08:18;5.90;;;3.00;;
81298;SDS011;70766;53.170;18.160;2023-07-20T05:10:47;5.80;;;3.60;;
81298;SDS011;70766;53.170;18.160;2023-07-20T05:13:15;5.40;;;2.80;;
81298;SDS011;70766;53.170;18.160;2023-07-20T05:15:43;5.30;;;3.10;;
81298;SDS011;70766;53.170;18.160;2023-07-20T05:18:14;4.50;;;2.20;;
81298;SDS011;70766;53.170;18.160;2023-07-20T05:20:48;4.90;;;2.50;;
81298;SDS011;70766;53.170;18.160;2023-07-20T05:23:19;3.80;;;2.60;;
81298;SDS011;70766;53.170;18.160;2023-07-20T05:25:58;3.30;;;2.10;;
81298;SDS011;70766;53.170;18.160;2023-07-20T05:28:29;4.80;;;2.50;;
81298;SDS011;70766;53.170;18.160;2023-07-20T05:30:57;4.90;;;2.30;;
81298;SDS011;70766;53.170;18.160;2023-07-20T05:33:27;4.20;;;2.50;;
81298;SDS011;70766;53.170;18.160;2023-07-20T05:35:55;6.50;;;2.40;;
81298;SDS011;70766;53.170;18.160;2023-07-20T05:38:23;4.40;;;2.10;;
81298;SDS011;70766;53.170;18.160;2023-07-20T05:40:51;4.80;;;2.30;;
81298;SDS011;70766;53.170;18.160;2023-07-20T05:43:20;2.70;;;1.80;;
81298;SDS011;70766;53.170;18.160;2023-07-20T05:45:48;4.10;;;2.10;;
81298;SDS011;70766;53.170;18.160;2023-07-20T05:48:16;5.30;;;2.00;;
81298;SDS011;70766;53.170;18.160;2023-07-20T05:50:44;6.10;;;2.40;;
81298;SDS011;70766;53.170;18.160;2023-07-20T05:53:12;4.40;;;2.20;;
81298;SDS011;70766;53.170;18.160;2023-07-20T05:55:40;3.00;;;2.00;;
81298;SDS011;70766;53.170;18.160;2023-07-20T05:58:08;3.50;;;2.30;;
81298;SDS011;70766;53.170;18.160;2023-07-20T06:00:36;5.80;;;2.40;;
81298;SDS011;70766;53.170;18.160;2023-07-20T06:03:04;4.70;;;2.40;;
81298;SDS011;70766;53.170;18.160;2023-07-20T06:05:32;4.60;;;2.40;;
81298;SDS011;70766;53.170;18.160;2023-07-20T06:08:00;4.20;;;2.00;;
81298;SDS011;70766;53.170;18.160;2023-07-20T06:10:29;2.90;;;1.80;;
81298;SDS011;70766;53.170;18.160;2023-07-20T06:12:57;3.00;;;1.90;;
81298;SDS011;70766;53.170;18.160;2023-07-20T06:17:55;2.90;;;1.80;;
81298;SDS011;70766;53.170;18.160;2023-07-20T06:20:26;4.30;;;2.00;;
81298;SDS011;70766;53.170;18.160;2023-07-20T06:22:54;4.40;;;2.00;;
81298;SDS011;70766;53.170;18.160;2023-07-20T06:25:22;4.70;;;1.70;;
81298;SDS011;70766;53.170;18.160;2023-07-20T06:27:51;4.20;;;1.80;;
81298;SDS011;70766;53.170;18.160;2023-07-20T06:30:19;6.70;;;2.00;;
81298;SDS011;70766;53.170;18.160;2023-07-20T06:32:47;3.90;;;1.50;;
81298;SDS011;70766;53.170;18.160;2023-07-20T06:35:16;3.00;;;1.60;;
81298;SDS011;70766;53.170;18.160;2023-07-20T06:37:45;3.30;;;1.50;;
81298;SDS011;70766;53.170;18.160;2023-07-20T06:40:13;5.60;;;1.60;;
81298;SDS011;70766;53.170;18.160;2023-07-20T06:42:44;5.00;;;1.60;;
81298;SDS011;70766;53.170;18.160;2023-07-20T06:45:15;5.20;;;1.90;;
81298;SDS011;70766;53.170;18.160;2023-07-20T06:47:44;3.70;;;1.70;;
81298;SDS011;70766;53.170;18.160;2023-07-20T06:50:12;2.50;;;1.50;;
81298;SDS011;70766;53.170;18.160;2023-07-20T06:52:43;3.30;;;1.60;;
81298;SDS011;70766;53.170;18.160;2023-07-20T06:55:11;5.00;;;1.80;;
81298;SDS011;70766;53.170;18.160;2023-07-20T06:57:39;2.70;;;1.30;;
81298;SDS011;70766;53.170;18.160;2023-07-20T07:00:10;4.90;;;1.60;;
81298;SDS011;70766;53.170;18.160;2023-07-20T07:02:40;2.80;;;1.50;;
81298;SDS011;70766;53.170;18.160;2023-07-20T07:05:08;3.60;;;1.40;;
81298;SDS011;70766;53.170;18.160;2023-07-20T07:07:39;6.50;;;1.50;;
81298;SDS011;70766;53.170;18.160;2023-07-20T07:10:08;2.60;;;1.50;;
81298;SDS011;70766;53.170;18.160;2023-07-20T07:12:36;2.40;;;1.40;;
81298;SDS011;70766;53.170;18.160;2023-07-20T07:15:04;5.40;;;2.30;;
81298;SDS011;70766;53.170;18.160;2023-07-20T07:17:36;4.10;;;2.20;;
81298;SDS011;70766;53.170;18.160;2023-07-20T07:20:05;3.50;;;2.10;;
81298;SDS011;70766;53.170;18.160;2023-07-20T07:22:38;6.80;;;2.50;;
81298;SDS011;70766;53.170;18.160;2023-07-20T07:25:06;4.60;;;1.90;;
81298;SDS011;70766;53.170;18.160;2023-07-20T07:27:35;4.00;;;2.50;;
81298;SDS011;70766;53.170;18.160;2023-07-20T07:30:04;3.10;;;2.00;;
81298;SDS011;70766;53.170;18.160;2023-07-20T07:32:32;3.40;;;2.00;;
81298;SDS011;70766;53.170;18.160;2023-07-20T07:35:00;5.20;;;2.00;;
81298;SDS011;70766;53.170;18.160;2023-07-20T07:37:29;4.20;;;1.70;;
81298;SDS011;70766;53.170;18.160;2023-07-20T07:40:03;3.50;;;2.00;;
81298;SDS011;70766;53.170;18.160;2023-07-20T07:42:33;4.60;;;2.20;;
81298;SDS011;70766;53.170;18.160;2023-07-20T07:45:01;3.70;;;1.90;;
81298;SDS011;70766;53.170;18.160;2023-07-20T07:47:30;4.10;;;1.70;;
81298;SDS011;70766;53.170;18.160;2023-07-20T07:49:58;2.40;;;1.40;;
81298;SDS011;70766;53.170;18.160;2023-07-20T07:52:26;5.90;;;2.20;;
81298;SDS011;70766;53.170;18.160;2023-07-20T07:54:54;4.40;;;1.60;;
81298;SDS011;70766;53.170;18.160;2023-07-20T07:57:22;2.30;;;1.50;;
81298;SDS011;70766;53.170;18.160;2023-07-20T07:59:50;3.80;;;1.60;;
81298;SDS011;70766;53.170;18.160;2023-07-20T08:02:18;3.60;;;1.70;;
81298;SDS011;70766;53.170;18.160;2023-07-20T08:04:47;4.20;;;1.60;;
81298;SDS011;70766;53.170;18.160;2023-07-20T08:07:15;5.10;;;1.80;;
81298;SDS011;70766;53.170;18.160;2023-07-20T08:09:43;4.20;;;1.50;;
81298;SDS011;70766;53.170;18.160;2023-07-20T08:12:11;2.80;;;1.30;;
81298;SDS011;70766;53.170;18.160;2023-07-20T08:14:39;3.10;;;1.10;;
81298;SDS011;70766;53.170;18.160;2023-07-20T08:17:07;4.60;;;1.30;;
81298;SDS011;70766;53.170;18.160;2023-07-20T08:19:36;2.80;;;1.20;;
81298;SDS011;70766;53.170;18.160;2023-07-20T08:22:09;3.20;;;1.50;;
81298;SDS011;70766;53.170;18.160;2023-07-20T08:24:40;3.60;;;1.30;;
81298;SDS011;70766;53.170;18.160;2023-07-20T08:27:08;3.90;;;1.30;;
81298;SDS011;70766;53.170;18.160;2023-07-20T08:29:37;1.50;;;1.10;;
81298;SDS011;70766;53.170;18.160;2023-07-20T08:32:05;3.00;;;0.80;;
81298;SDS011;70766;53.170;18.160;2023-07-20T08:34:34;2.40;;;1.10;;
81298;SDS011;70766;53.170;18.160;2023-07-20T08:37:02;1.90;;;0.80;;
81298;SDS011;70766;53.170;18.160;2023-07-20T08:39:30;2.40;;;1.10;;
81298;SDS011;70766;53.170;18.160;2023-07-20T08:41:59;2.60;;;1.50;;
81298;SDS011;70766;53.170;18.160;2023-07-20T08:44:35;2.40;;;0.90;;
81298;SDS011;70766;53.170;18.160;2023-07-20T08:47:06;1.70;;;1.00;;
81298;SDS011;70766;53.170;18.160;2023-07-20T08:49:35;1.30;;;0.90;;
81298;SDS011;70766;53.170;18.160;2023-07-20T08:52:07;1.70;;;1.00;;
81298;SDS011;70766;53.170;18.160;2023-07-20T08:54:35;2.40;;;1.20;;
81298;SDS011;70766;53.170;18.160;2023-07-20T08:57:05;2.00;;;1.00;;
81298;SDS011;70766;53.170;18.160;2023-07-20T08:59:34;2.30;;;1.20;;
81298;SDS011;70766;53.170;18.160;2023-07-20T09:02:05;2.50;;;1.20;;
81298;SDS011;70766;53.170;18.160;2023-07-20T09:04:36;1.80;;;1.20;;
81298;SDS011;70766;53.170;18.160;2023-07-20T09:07:05;2.50;;;1.20;;
81298;SDS011;70766;53.170;18.160;2023-07-20T09:09:33;2.80;;;1.30;;
81298;SDS011;70766;53.170;18.160;2023-07-20T09:12:13;3.30;;;1.10;;
81298;SDS011;70766;53.170;18.160;2023-07-20T09:14:42;2.10;;;1.00;;
81298;SDS011;70766;53.170;18.160;2023-07-20T09:17:14;3.00;;;1.40;;
81298;SDS011;70766;53.170;18.160;2023-07-20T09:19:48;3.90;;;1.40;;
81298;SDS011;70766;53.170;18.160;2023-07-20T09:22:16;2.00;;;1.20;;
81298;SDS011;70766;53.170;18.160;2023-07-20T09:24:45;3.90;;;1.70;;
81298;SDS011;70766;53.170;18.160;2023-07-20T09:27:13;3.50;;;1.20;;
81298;SDS011;70766;53.170;18.160;2023-07-20T09:29:48;1.60;;;1.00;;
81298;SDS011;70766;53.170;18.160;2023-07-20T09:32:20;7.80;;;1.40;;
81298;SDS011;70766;53.170;18.160;2023-07-20T09:34:53;1.90;;;1.20;;
81298;SDS011;70766;53.170;18.160;2023-07-20T09:37:21;3.80;;;1.20;;
81298;SDS011;70766;53.170;18.160;2023-07-20T09:39:53;3.10;;;1.30;;
81298;SDS011;70766;53.170;18.160;2023-07-20T09:42:25;2.00;;;1.20;;
81298;SDS011;70766;53.170;18.160;2023-07-20T09:44:57;3.90;;;1.50;;
81298;SDS011;70766;53.170;18.160;2023-07-20T09:47:26;3.10;;;1.20;;
81298;SDS011;70766;53.170;18.160;2023-07-20T09:49:59;2.90;;;1.20;;
81298;SDS011;70766;53.170;18.160;2023-07-20T09:52:34;3.40;;;1.50;;
81298;SDS011;70766;53.170;18.160;2023-07-20T09:55:08;3.40;;;1.40;;
81298;SDS011;70766;53.170;18.160;2023-07-20T09:57:37;1.80;;;1.30;;
81298;SDS011;70766;53.170;18.160;2023-07-20T10:00:07;1.70;;;1.10;;
81298;SDS011;70766;53.170;18.160;2023-07-20T10:02:44;1.30;;;1.00;;
81298;SDS011;70766;53.170;18.160;2023-07-20T10:05:14;1.00;;;0.80;;
81298;SDS011;70766;53.170;18.160;2023-07-20T10:07:50;1.60;;;1.10;;
81298;SDS011;70766;53.170;18.160;2023-07-20T10:10:41;1.50;;;1.00;;
81298;SDS011;70766;53.170;18.160;2023-07-20T10:13:18;1.20;;;0.90;;
81298;SDS011;70766;53.170;18.160;2023-07-20T10:15:54;2.30;;;1.10;;
81298;SDS011;70766;53.170;18.160;2023-07-20T10:21:19;1.80;;;1.00;;
81298;SDS011;70766;53.170;18.160;2023-07-20T10:23:54;1.30;;;1.00;;
81298;SDS011;70766;53.170;18.160;2023-07-20T10:26:26;1.80;;;1.00;;
81298;SDS011;70766;53.170;18.160;2023-07-20T10:28:55;1.40;;;0.90;;
81298;SDS011;70766;53.170;18.160;2023-07-20T10:31:24;4.90;;;1.00;;
81298;SDS011;70766;53.170;18.160;2023-07-20T10:33:56;3.00;;;0.90;;
81298;SDS011;70766;53.170;18.160;2023-07-20T10:36:27;2.70;;;1.10;;
81298;SDS011;70766;53.170;18.160;2023-07-20T10:38:58;3.00;;;1.20;;
81298;SDS011;70766;53.170;18.160;2023-07-20T10:41:34;4.00;;;1.20;;
81298;SDS011;70766;53.170;18.160;2023-07-20T10:44:04;2.70;;;1.00;;
81298;SDS011;70766;53.170;18.160;2023-07-20T10:49:03;2.10;;;1.10;;
81298;SDS011;70766;53.170;18.160;2023-07-20T10:56:44;2.50;;;1.10;;
81298;SDS011;70766;53.170;18.160;2023-07-20T10:59:19;3.60;;;1.30;;
81298;SDS011;70766;53.170;18.160;2023-07-20T11:02:07;1.70;;;1.10;;
81298;SDS011;70766;53.170;18.160;2023-07-20T11:04:43;1.20;;;1.00;;
81298;SDS011;70766;53.170;18.160;2023-07-20T11:07:16;1.30;;;0.90;;
81298;SDS011;70766;53.170;18.160;2023-07-20T11:09:46;1.00;;;0.90;;
81298;SDS011;70766;53.170;18.160;2023-07-20T11:12:17;1.50;;;1.20;;
81298;SDS011;70766;53.170;18.160;2023-07-20T11:14:56;1.50;;;1.10;;
81298;SDS011;70766;53.170;18.160;2023-07-20T11:17:28;1.60;;;1.00;;
81298;SDS011;70766;53.170;18.160;2023-07-20T11:20:01;2.80;;;1.00;;
81298;SDS011;70766;53.170;18.160;2023-07-20T11:22:33;1.80;;;1.20;;
81298;SDS011;70766;53.170;18.160;2023-07-20T11:25:02;1.90;;;1.10;;
81298;SDS011;70766;53.170;18.160;2023-07-20T11:27:31;6.10;;;1.30;;
81298;SDS011;70766;53.170;18.160;2023-07-20T11:29:59;1.90;;;1.20;;
81298;SDS011;70766;53.170;18.160;2023-07-20T11:32:27;2.10;;;1.00;;
81298;SDS011;70766;53.170;18.160;2023-07-20T11:34:55;2.30;;;1.10;;
81298;SDS011;70766;53.170;18.160;2023-07-20T11:37:23;1.60;;;1.10;;
81298;SDS011;70766;53.170;18.160;2023-07-20T11:39:55;2.50;;;1.20;;
81298;SDS011;70766;53.170;18.160;2023-07-20T11:42:24;1.40;;;1.10;;
81298;SDS011;70766;53.170;18.160;2023-07-20T11:44:56;1.90;;;0.80;;
81298;SDS011;70766;53.170;18.160;2023-07-20T11:47:28;1.40;;;0.90;;
81298;SDS011;70766;53.170;18.160;2023-07-20T11:49:57;1.20;;;0.80;;
81298;SDS011;70766;53.170;18.160;2023-07-20T11:52:31;2.40;;;0.90;;
81298;SDS011;70766;53.170;18.160;2023-07-20T11:55:00;2.80;;;0.80;;
81298;SDS011;70766;53.170;18.160;2023-07-20T11:57:30;3.00;;;0.90;;
81298;SDS011;70766;53.170;18.160;2023-07-20T12:00:03;1.10;;;0.60;;
81298;SDS011;70766;53.170;18.160;2023-07-20T12:02:37;1.30;;;0.60;;
81298;SDS011;70766;53.170;18.160;2023-07-20T12:05:07;1.30;;;0.80;;
81298;SDS011;70766;53.170;18.160;2023-07-20T12:07:36;3.70;;;0.90;;
81298;SDS011;70766;53.170;18.160;2023-07-20T12:10:08;4.20;;;0.90;;
81298;SDS011;70766;53.170;18.160;2023-07-20T12:12:39;1.50;;;0.80;;
81298;SDS011;70766;53.170;18.160;2023-07-20T12:17:50;4.80;;;1.40;;
81298;SDS011;70766;53.170;18.160;2023-07-20T12:23:00;2.60;;;1.20;;
81298;SDS011;70766;53.170;18.160;2023-07-20T12:25:41;2.60;;;1.10;;
81298;SDS011;70766;53.170;18.160;2023-07-20T12:28:11;1.60;;;1.00;;
81298;SDS011;70766;53.170;18.160;2023-07-20T12:30:45;2.30;;;1.20;;
81298;SDS011;70766;53.170;18.160;2023-07-20T12:33:14;2.50;;;1.00;;
81298;SDS011;70766;53.170;18.160;2023-07-20T12:35:46;2.60;;;1.10;;
81298;SDS011;70766;53.170;18.160;2023-07-20T12:38:14;1.30;;;1.00;;
81298;SDS011;70766;53.170;18.160;2023-07-20T12:40:43;3.20;;;1.00;;
81298;SDS011;70766;53.170;18.160;2023-07-20T12:43:12;2.70;;;0.90;;
81298;SDS011;70766;53.170;18.160;2023-07-20T12:45:40;1.20;;;0.80;;
81298;SDS011;70766;53.170;18.160;2023-07-20T12:48:10;1.40;;;1.00;;
81298;SDS011;70766;53.170;18.160;2023-07-20T12:50:38;1.70;;;1.20;;
81298;SDS011;70766;53.170;18.160;2023-07-20T12:53:07;1.90;;;1.10;;
81298;SDS011;70766;53.170;18.160;2023-07-20T12:55:37;1.20;;;0.80;;
81298;SDS011;70766;53.170;18.160;2023-07-20T12:58:07;2.10;;;0.90;;
81298;SDS011;70766;53.170;18.160;2023-07-20T13:00:44;2.20;;;1.00;;
81298;SDS011;70766;53.170;18.160;2023-07-20T13:03:12;2.00;;;1.10;;
81298;SDS011;70766;53.170;18.160;2023-07-20T13:05:57;1.80;;;1.10;;
81298;SDS011;70766;53.170;18.160;2023-07-20T13:08:28;1.60;;;0.80;;
81298;SDS011;70766;53.170;18.160;2023-07-20T13:10:56;1.10;;;0.90;;
81298;SDS011;70766;53.170;18.160;2023-07-20T13:13:24;2.20;;;1.00;;
81298;SDS011;70766;53.170;18.160;2023-07-20T13:15:53;1.30;;;1.00;;
81298;SDS011;70766;53.170;18.160;2023-07-20T13:18:22;1.70;;;1.10;;
81298;SDS011;70766;53.170;18.160;2023-07-20T13:20:50;1.20;;;1.10;;
81298;SDS011;70766;53.170;18.160;2023-07-20T13:23:18;2.20;;;1.00;;
81298;SDS011;70766;53.170;18.160;2023-07-20T13:25:47;1.10;;;0.70;;
81298;SDS011;70766;53.170;18.160;2023-07-20T13:28:15;1.60;;;0.90;;
81298;SDS011;70766;53.170;18.160;2023-07-20T13:30:44;2.50;;;1.20;;
81298;SDS011;70766;53.170;18.160;2023-07-20T13:33:14;1.40;;;1.00;;
81298;SDS011;70766;53.170;18.160;2023-07-20T13:35:45;2.00;;;0.90;;
81298;SDS011;70766;53.170;18.160;2023-07-20T13:38:17;5.10;;;1.00;;
81298;SDS011;70766;53.170;18.160;2023-07-20T13:40:46;1.60;;;0.90;;
81298;SDS011;70766;53.170;18.160;2023-07-20T13:43:14;1.20;;;1.00;;
81298;SDS011;70766;53.170;18.160;2023-07-20T13:45:42;1.80;;;0.90;;
81298;SDS011;70766;53.170;18.160;2023-07-20T13:48:11;1.30;;;1.10;;
81298;SDS011;70766;53.170;18.160;2023-07-20T13:50:39;0.80;;;0.80;;
81298;SDS011;70766;53.170;18.160;2023-07-20T13:53:26;1.00;;;0.90;;
81298;SDS011;70766;53.170;18.160;2023-07-20T13:55:58;1.00;;;0.90;;
81298;SDS011;70766;53.170;18.160;2023-07-20T13:58:30;1.10;;;1.00;;
81298;SDS011;70766;53.170;18.160;2023-07-20T14:00:58;2.70;;;1.10;;
81298;SDS011;70766;53.170;18.160;2023-07-20T14:03:27;1.50;;;1.00;;
81298;SDS011;70766;53.170;18.160;2023-07-20T14:05:55;0.80;;;0.70;;
81298;SDS011;70766;53.170;18.160;2023-07-20T14:08:27;1.30;;;1.00;;
81298;SDS011;70766;53.170;18.160;2023-07-20T14:10:58;1.00;;;0.80;;
81298;SDS011;70766;53.170;18.160;2023-07-20T14:13:29;0.90;;;0.80;;
81298;SDS011;70766;53.170;18.160;2023-07-20T14:16:13;1.50;;;1.10;;
81298;SDS011;70766;53.170;18.160;2023-07-20T14:18:42;1.50;;;1.40;;
81298;SDS011;70766;53.170;18.160;2023-07-20T14:21:10;2.00;;;1.20;;
81298;SDS011;70766;53.170;18.160;2023-07-20T14:23:38;3.30;;;1.00;;
81298;SDS011;70766;53.170;18.160;2023-07-20T14:26:06;1.40;;;1.00;;
81298;SDS011;70766;53.170;18.160;2023-07-20T14:28:37;1.40;;;1.00;;
81298;SDS011;70766;53.170;18.160;2023-07-20T14:31:06;1.50;;;0.90;;
81298;SDS011;70766;53.170;18.160;2023-07-20T14:33:34;1.50;;;0.90;;
81298;SDS011;70766;53.170;18.160;2023-07-20T14:36:03;1.10;;;1.00;;
81298;SDS011;70766;53.170;18.160;2023-07-20T14:38:33;1.70;;;1.00;;
81298;SDS011;70766;53.170;18.160;2023-07-20T14:41:02;1.40;;;0.80;;
81298;SDS011;70766;53.170;18.160;2023-07-20T14:43:30;1.70;;;1.00;;
81298;SDS011;70766;53.170;18.160;2023-07-20T14:46:00;1.30;;;1.10;;
81298;SDS011;70766;53.170;18.160;2023-07-20T14:48:29;1.00;;;0.90;;
81298;SDS011;70766;53.170;18.160;2023-07-20T14:50:57;1.50;;;1.00;;
81298;SDS011;70766;53.170;18.160;2023-07-20T14:53:28;1.60;;;0.90;;
81298;SDS011;70766;53.170;18.160;2023-07-20T14:56:03;2.40;;;0.80;;
81298;SDS011;70766;53.170;18.160;2023-07-20T14:58:32;1.00;;;0.90;;
81298;SDS011;70766;53.170;18.160;2023-07-20T15:01:03;1.30;;;1.00;;
81298;SDS011;70766;53.170;18.160;2023-07-20T15:03:32;1.40;;;1.00;;
81298;SDS011;70766;53.170;18.160;2023-07-20T15:06:03;1.20;;;0.80;;
81298;SDS011;70766;53.170;18.160;2023-07-20T15:08:31;1.30;;;1.10;;
81298;SDS011;70766;53.170;18.160;2023-07-20T15:10:59;1.00;;;0.80;;